createdAt,value
2023-04-16T00:03:00.058Z,11
2023-04-16T00:07:59.749Z,10
2023-04-16T00:12:59.747Z,11
2023-04-16T00:18:10.017Z,11
2023-04-16T00:23:59.766Z,12
2023-04-16T00:29:10.274Z,12
2023-04-16T00:34:10.055Z,13
2023-04-16T00:39:59.728Z,16
2023-04-16T00:44:59.766Z,18
2023-04-16T00:50:09.997Z,19
2023-04-16T00:55:10.025Z,22
2023-04-16T01:00:59.761Z,25
2023-04-16T01:06:10.028Z,24
2023-04-16T01:11:59.754Z,31
2023-04-16T01:17:10.030Z,35
2023-04-16T01:22:59.751Z,35
2023-04-16T01:27:59.820Z,38
2023-04-16T01:33:10.018Z,39
2023-04-16T01:38:59.755Z,37
2023-04-16T01:44:10.059Z,37
2023-04-16T01:49:59.756Z,38
2023-04-16T01:54:59.852Z,38
2023-04-16T02:00:10.027Z,37
2023-04-16T02:05:59.769Z,35
2023-04-16T02:11:10.064Z,36
2023-04-16T02:16:10.045Z,38
2023-04-16T02:21:59.766Z,34
2023-04-16T02:27:10.014Z,36
2023-04-16T02:32:59.827Z,36
2023-04-16T02:38:10.018Z,36
2023-04-16T02:43:10.044Z,37
2023-04-16T02:48:59.747Z,35
2023-04-16T02:53:59.769Z,33
2023-04-16T02:59:10.449Z,28
2023-04-16T03:04:59.739Z,27
2023-04-16T03:09:59.745Z,25
2023-04-16T03:15:10.043Z,26
2023-04-16T03:20:59.723Z,23
2023-04-16T03:25:59.755Z,24
2023-04-16T03:30:59.790Z,23
2023-04-16T03:36:10.068Z,26
2023-04-16T03:41:10.055Z,25
2023-04-16T03:46:59.758Z,29
2023-04-16T03:51:59.828Z,30
2023-04-16T03:56:59.763Z,29
2023-04-16T04:02:10.113Z,34
2023-04-16T04:07:59.780Z,36
2023-04-16T04:12:59.787Z,35
2023-04-16T04:18:10.047Z,36
2023-04-16T04:23:10.063Z,35
2023-04-16T04:28:59.737Z,37
2023-04-16T04:33:59.761Z,37
2023-04-16T04:38:59.789Z,36
2023-04-16T04:43:59.791Z,35
2023-04-16T04:49:10.346Z,34
2023-04-16T04:55:06.025Z,31
2023-04-16T05:00:10.065Z,31
2023-04-16T05:05:59.766Z,31
2023-04-16T05:11:10.044Z,30
2023-04-16T05:16:20.346Z,30
2023-04-16T05:21:59.761Z,29
2023-04-16T05:26:59.773Z,29
2023-04-16T05:31:59.811Z,30
2023-04-16T05:37:10.064Z,30
2023-04-16T05:42:59.759Z,31
2023-04-16T05:48:10.045Z,30
2023-04-16T05:53:59.777Z,28
2023-04-16T05:59:10.293Z,27
2023-04-16T06:04:10.194Z,26
2023-04-16T06:09:59.786Z,26
2023-04-16T06:14:59.785Z,26
2023-04-16T06:20:10.048Z,25
2023-04-16T06:25:10.127Z,26
2023-04-16T06:30:59.738Z,27
2023-04-16T06:35:59.763Z,29
2023-04-16T06:40:59.772Z,28
2023-04-16T06:46:10.026Z,27
2023-04-16T06:51:10.056Z,27
2023-04-16T06:56:10.059Z,26
2023-04-16T07:01:59.817Z,26
2023-04-16T07:06:59.754Z,26
2023-04-16T07:11:59.806Z,25
2023-04-16T07:17:10.044Z,25
2023-04-16T07:22:59.738Z,25
2023-04-16T07:27:59.766Z,23
2023-04-16T07:33:10.115Z,25
2023-04-16T07:38:10.050Z,27
2023-04-16T07:43:59.764Z,23
2023-04-16T07:48:59.790Z,21
2023-04-16T07:54:10.089Z,23
2023-04-16T07:59:59.766Z,26
2023-04-16T08:04:59.815Z,26
2023-04-16T08:09:59.800Z,25
2023-04-16T08:15:10.067Z,27
2023-04-16T08:20:59.783Z,29
2023-04-16T08:26:10.048Z,32
2023-04-16T08:31:10.105Z,31
2023-04-16T08:36:10.075Z,30
2023-04-16T08:41:59.756Z,30
2023-04-16T08:46:59.830Z,30
2023-04-16T08:52:10.043Z,29
2023-04-16T08:57:10.049Z,27
2023-04-16T09:02:10.160Z,26
2023-04-16T09:07:10.076Z,27
2023-04-16T09:12:59.772Z,26
2023-04-16T09:17:59.868Z,25
2023-04-16T09:23:10.054Z,26
2023-04-16T09:28:10.049Z,25
2023-04-16T09:33:59.776Z,23
2023-04-16T09:38:59.805Z,22
2023-04-16T09:43:59.830Z,22
2023-04-16T09:49:10.428Z,20
2023-04-16T09:54:59.782Z,20
2023-04-16T09:59:59.790Z,20
2023-04-16T10:05:10.074Z,19
2023-04-16T10:10:10.076Z,21
2023-04-16T10:15:48.985Z,20
2023-04-16T10:20:59.803Z,19
2023-04-16T10:26:10.067Z,19
2023-04-16T10:31:10.298Z,19
2023-04-16T10:36:59.815Z,19
2023-04-16T10:42:10.112Z,18
2023-04-16T10:47:59.838Z,19
2023-04-16T10:52:59.810Z,19
2023-04-16T10:58:10.061Z,20
2023-04-16T11:03:10.159Z,17
2023-04-16T11:08:10.095Z,18
2023-04-16T11:13:10.072Z,18
2023-04-16T11:18:10.176Z,18
2023-04-16T11:24:00.049Z,18
2023-04-16T11:29:10.220Z,18
2023-04-16T11:34:10.114Z,17
2023-04-16T11:39:59.757Z,17
2023-04-16T11:44:59.811Z,18
2023-04-16T11:49:59.793Z,16
2023-04-16T11:55:10.061Z,17
2023-04-16T12:00:10.656Z,16
2023-04-16T12:05:10.192Z,18
2023-04-16T12:10:59.796Z,18
2023-04-16T12:16:00.975Z,17
2023-04-16T12:21:10.083Z,16
2023-04-16T12:26:59.821Z,14
2023-04-16T12:32:10.132Z,13
2023-04-16T12:37:59.813Z,13
2023-04-16T12:43:10.112Z,12
2023-04-16T12:48:59.800Z,12
2023-04-16T12:54:10.097Z,12
2023-04-16T12:59:10.536Z,11
2023-04-16T13:04:59.965Z,12
2023-04-16T13:09:59.829Z,12
2023-04-16T13:15:10.074Z,11
2023-04-16T13:20:10.152Z,11
2023-04-16T13:25:59.818Z,11
2023-04-16T13:31:10.107Z,12
2023-04-16T13:36:10.087Z,11
2023-04-16T13:41:10.092Z,11
2023-04-16T13:46:59.936Z,10
2023-04-16T13:51:59.853Z,10
2023-04-16T13:57:10.098Z,10
2023-04-16T14:02:10.157Z,10
2023-04-16T14:07:59.788Z,10
2023-04-16T14:12:59.798Z,11
2023-04-16T14:17:59.868Z,10
2023-04-16T14:23:10.121Z,11
2023-04-16T14:28:59.808Z,12
2023-04-16T14:33:59.869Z,11
2023-04-16T14:39:10.360Z,10
2023-04-16T14:44:10.131Z,11
2023-04-16T14:49:12.277Z,11
2023-04-16T14:54:59.825Z,10
2023-04-16T14:59:59.828Z,10
2023-04-16T15:05:10.116Z,10
2023-04-16T15:10:10.092Z,10
2023-04-16T15:15:59.825Z,10
2023-04-16T15:21:12.413Z,10
2023-04-16T15:26:59.823Z,10
2023-04-16T15:32:10.119Z,11
2023-04-16T15:37:59.833Z,10
2023-04-16T15:43:10.146Z,12
2023-04-16T15:48:10.167Z,10
2023-04-16T15:54:10.100Z,11
2023-04-16T15:59:10.393Z,11
2023-04-16T16:04:59.818Z,11
2023-04-16T16:09:59.842Z,12
2023-04-16T16:15:10.167Z,13
2023-04-16T16:20:59.837Z,11
2023-04-16T16:26:10.120Z,12
2023-04-16T16:31:59.984Z,13
2023-04-16T16:37:10.123Z,13
2023-04-16T16:42:10.132Z,13
2023-04-16T16:47:59.908Z,13
2023-04-16T16:53:10.099Z,13
2023-04-16T16:58:10.128Z,16
2023-04-16T17:03:59.927Z,14
2023-04-16T17:08:59.842Z,14
2023-04-16T17:14:10.103Z,14
2023-04-16T17:19:10.265Z,14
2023-04-16T17:24:59.872Z,15
2023-04-16T17:30:10.108Z,12
2023-04-16T17:35:59.845Z,13
2023-04-16T17:41:10.162Z,14
2023-04-16T17:46:20.453Z,14
2023-04-16T17:51:59.861Z,13
2023-04-16T17:57:10.214Z,14
2023-04-16T18:02:10.313Z,14
2023-04-16T18:07:10.208Z,14
2023-04-16T18:12:59.830Z,13
2023-04-16T18:18:10.191Z,13
2023-04-16T18:23:59.848Z,13
2023-04-16T18:29:10.501Z,13
2023-04-16T18:34:59.852Z,12
2023-04-16T18:40:10.094Z,12
2023-04-16T18:45:10.178Z,14
2023-04-16T18:50:59.836Z,15
2023-04-16T18:56:10.143Z,15
2023-04-16T19:01:59.901Z,14
2023-04-16T19:06:59.859Z,15
2023-04-16T19:11:59.865Z,14
2023-04-16T19:17:10.153Z,15
2023-04-16T19:22:59.946Z,13
2023-04-16T19:28:10.129Z,12
2023-04-16T19:33:10.163Z,12
2023-04-16T19:38:10.931Z,12
2023-04-16T19:43:59.843Z,14
2023-04-16T19:48:59.863Z,13
2023-04-16T19:54:10.136Z,14
2023-04-16T19:59:10.524Z,16
2023-04-16T20:04:59.850Z,14
2023-04-16T20:09:59.933Z,13
2023-04-16T20:15:10.173Z,14
2023-04-16T20:20:10.233Z,12
2023-04-16T20:25:59.871Z,13
2023-04-16T20:31:10.191Z,14
2023-04-16T20:36:59.845Z,14
2023-04-16T20:42:10.159Z,14
2023-04-16T20:47:10.192Z,14
2023-04-16T20:52:59.868Z,13
2023-04-16T20:57:59.865Z,13
2023-04-16T21:03:10.263Z,13
2023-04-16T21:08:59.864Z,16
2023-04-16T21:13:59.864Z,15
2023-04-16T21:19:10.603Z,15
2023-04-16T21:24:59.885Z,16
2023-04-16T21:30:10.214Z,16
2023-04-16T21:35:10.624Z,16
2023-04-16T21:40:10.182Z,16
2023-04-16T21:45:59.869Z,19
2023-04-16T21:51:10.184Z,18
2023-04-16T21:56:10.164Z,18
2023-04-16T22:01:11.059Z,21
2023-04-16T22:06:59.854Z,24
2023-04-16T22:11:59.862Z,24
2023-04-16T22:16:59.928Z,27
2023-04-16T22:22:10.155Z,25
2023-04-16T22:27:59.889Z,24
2023-04-16T22:33:10.218Z,27
2023-04-16T22:38:10.174Z,21
2023-04-16T22:43:59.881Z,21
2023-04-16T22:49:10.434Z,21
2023-04-16T22:54:11.175Z,21
2023-04-16T22:59:10.434Z,20
2023-04-16T23:04:10.215Z,21
2023-04-16T23:09:10.591Z,19
2023-04-16T23:14:59.870Z,18
2023-04-16T23:19:59.877Z,18
2023-04-16T23:25:10.141Z,16
2023-04-16T23:30:10.162Z,16
2023-04-16T23:35:10.174Z,18
2023-04-16T23:41:10.139Z,17
2023-04-16T23:46:10.198Z,18
2023-04-16T23:51:10.208Z,16
2023-04-16T23:56:59.886Z,16
